createdAt,value
2018-03-15T00:00:00.766Z,17.40
2018-03-15T00:02:28.596Z,17.40
2018-03-15T00:04:57.996Z,17.40
2018-03-15T00:07:26.619Z,17.40
2018-03-15T00:09:54.189Z,17.40
2018-03-15T00:12:23.029Z,17.40
2018-03-15T00:14:50.847Z,17.40
2018-03-15T00:17:19.420Z,17.40
2018-03-15T00:19:47.057Z,17.40
2018-03-15T00:22:14.641Z,17.40
2018-03-15T00:24:44.071Z,17.40
2018-03-15T00:27:11.687Z,17.40
2018-03-15T00:29:39.512Z,17.40
2018-03-15T00:32:07.091Z,17.40
2018-03-15T00:34:34.747Z,17.40
2018-03-15T00:37:02.321Z,17.40
2018-03-15T00:39:29.885Z,17.40
2018-03-15T00:41:58.530Z,17.40
2018-03-15T00:44:26.611Z,17.30
2018-03-15T00:46:54.566Z,17.40
2018-03-15T00:49:22.332Z,17.40
2018-03-15T00:51:50.029Z,17.30
2018-03-15T00:54:18.366Z,17.40
2018-03-15T00:56:45.948Z,17.30
2018-03-15T00:59:13.691Z,17.40
2018-03-15T01:01:42.066Z,17.40
2018-03-15T01:04:09.640Z,17.30
2018-03-15T01:06:37.514Z,17.40
2018-03-15T01:09:05.206Z,17.30
2018-03-15T01:11:33.540Z,17.30
2018-03-15T01:14:01.110Z,17.30
2018-03-15T01:16:28.806Z,17.30
2018-03-15T01:18:57.171Z,17.30
2018-03-15T01:21:25.544Z,17.30
2018-03-15T01:23:53.177Z,17.30
2018-03-15T01:26:20.728Z,17.40
2018-03-15T01:28:48.300Z,17.30
2018-03-15T01:31:15.859Z,17.30
2018-03-15T01:33:43.484Z,17.30
2018-03-15T01:36:11.064Z,17.40
2018-03-15T01:38:38.635Z,17.30
2018-03-15T01:41:07.752Z,17.30
2018-03-15T01:43:36.078Z,17.30
2018-03-15T01:46:03.643Z,17.30
2018-03-15T01:48:31.282Z,17.30
2018-03-15T01:50:58.886Z,17.30
2018-03-15T01:53:26.452Z,17.30
2018-03-15T01:55:54.092Z,17.30
2018-03-15T01:58:21.689Z,17.30
2018-03-15T02:00:50.090Z,17.30
2018-03-15T02:03:17.650Z,17.20
2018-03-15T02:05:45.281Z,17.30
2018-03-15T02:08:13.636Z,17.30
2018-03-15T02:10:41.236Z,17.20
2018-03-15T02:13:08.811Z,17.30
2018-03-15T02:15:36.478Z,17.30
2018-03-15T02:18:04.098Z,17.30
2018-03-15T02:20:31.739Z,17.20
2018-03-15T02:23:00.845Z,17.20
2018-03-15T02:25:29.241Z,17.20
2018-03-15T02:27:56.879Z,17.20
2018-03-15T02:30:25.231Z,17.20
2018-03-15T02:32:52.833Z,17.20
2018-03-15T02:35:21.209Z,17.20
2018-03-15T02:37:49.611Z,17.20
2018-03-15T02:40:17.210Z,17.20
2018-03-15T02:42:44.779Z,17.30
2018-03-15T02:45:12.350Z,17.30
2018-03-15T02:47:40.674Z,17.20
2018-03-15T02:52:43.434Z,17.30
2018-03-15T02:55:11.109Z,17.20
2018-03-15T02:57:38.959Z,17.30
2018-03-15T03:00:06.547Z,17.20
2018-03-15T03:02:34.254Z,17.30
2018-03-15T03:05:02.586Z,17.20
2018-03-15T03:07:30.289Z,17.20
2018-03-15T03:10:08.861Z,17.20
2018-03-15T03:12:36.444Z,17.20
2018-03-15T03:15:04.100Z,17.20
2018-03-15T03:17:31.720Z,17.20
2018-03-15T03:19:59.324Z,17.20
2018-03-15T03:22:26.911Z,17.20
2018-03-15T03:24:55.271Z,17.20
2018-03-15T03:27:22.911Z,17.20
2018-03-15T03:29:50.601Z,17.20
2018-03-15T03:32:18.962Z,17.20
2018-03-15T03:34:48.075Z,17.20
2018-03-15T03:37:16.438Z,17.20
2018-03-15T03:41:29.126Z,17.20
2018-03-15T03:43:56.696Z,17.20
2018-03-15T03:46:24.286Z,17.20
2018-03-15T03:48:52.630Z,17.20
2018-03-15T03:51:20.232Z,17.10
2018-03-15T03:53:48.572Z,17.20
2018-03-15T03:56:16.134Z,17.10
2018-03-15T03:58:45.224Z,17.10
2018-03-15T04:01:12.882Z,17.10
2018-03-15T04:03:40.468Z,17.20
2018-03-15T04:06:08.812Z,17.20
2018-03-15T04:08:36.396Z,17.10
2018-03-15T04:11:04.022Z,17.20
2018-03-15T04:13:31.587Z,17.20
2018-03-15T04:15:59.166Z,17.20
2018-03-15T04:18:28.253Z,17.10
2018-03-15T04:20:55.827Z,17.10
2018-03-15T04:23:23.396Z,17.20
2018-03-15T04:25:51.791Z,17.20
2018-03-15T04:28:19.472Z,17.10
2018-03-15T04:30:47.091Z,17.20
2018-03-15T04:33:15.612Z,17.20
2018-03-15T04:35:43.176Z,17.10
2018-03-15T04:38:10.778Z,17.10
2018-03-15T04:40:39.499Z,17.10
2018-03-15T04:43:07.108Z,17.10
2018-03-15T04:45:34.745Z,17.20
2018-03-15T04:48:02.434Z,17.20
2018-03-15T04:50:30.102Z,17.10
2018-03-15T04:52:57.756Z,17.10
2018-03-15T04:55:26.094Z,17.10
2018-03-15T04:57:53.799Z,17.10
2018-03-15T05:00:22.950Z,17.10
2018-03-15T05:02:50.526Z,17.10
2018-03-15T05:05:18.091Z,17.10
2018-03-15T05:07:45.648Z,17.10
2018-03-15T05:10:14.163Z,17.10
2018-03-15T05:12:42.522Z,17.10
2018-03-15T05:15:10.127Z,17.10
2018-03-15T05:17:37.830Z,17.10
2018-03-15T05:20:05.416Z,17.10
2018-03-15T05:22:33.749Z,17.10
2018-03-15T05:25:01.310Z,17.10
2018-03-15T05:27:28.874Z,17.10
2018-03-15T05:29:56.448Z,17.10
2018-03-15T05:32:24.093Z,17.10
2018-03-15T05:34:51.707Z,17.10
2018-03-15T05:37:19.312Z,17.10
2018-03-15T05:39:46.916Z,17.10
2018-03-15T05:42:14.648Z,17.10
2018-03-15T05:44:42.954Z,17.10
2018-03-15T05:47:10.665Z,17.10
2018-03-15T05:49:38.777Z,17.10
2018-03-15T05:52:07.175Z,17.10
2018-03-15T05:54:34.740Z,17.10
2018-03-15T05:57:02.295Z,17.10
2018-03-15T05:59:29.856Z,17.10
2018-03-15T06:01:57.555Z,17.10
2018-03-15T06:04:25.232Z,17.10
2018-03-15T06:06:54.126Z,17.10
2018-03-15T06:09:22.478Z,17.10
2018-03-15T06:11:50.907Z,17.10
2018-03-15T06:14:19.713Z,17.00
2018-03-15T06:16:47.509Z,17.10
2018-03-15T06:19:16.060Z,17.10
2018-03-15T06:21:43.682Z,17.10
2018-03-15T06:24:12.031Z,17.10
2018-03-15T06:26:39.682Z,17.00
2018-03-15T06:29:08.152Z,17.10
2018-03-15T06:31:35.772Z,17.10
2018-03-15T06:34:04.983Z,17.00
2018-03-15T06:36:33.083Z,17.00
2018-03-15T06:39:00.686Z,17.10
2018-03-15T06:41:28.246Z,17.00
2018-03-15T06:43:55.806Z,17.10
2018-03-15T06:46:23.435Z,17.00
2018-03-15T06:48:51.843Z,17.10
2018-03-15T06:51:19.456Z,17.00
2018-03-15T06:53:47.059Z,17.00
2018-03-15T06:56:14.670Z,17.00
2018-03-15T06:58:42.311Z,17.00
2018-03-15T07:01:09.991Z,17.00
2018-03-15T07:03:37.693Z,17.00
2018-03-15T07:06:05.383Z,17.10
2018-03-15T07:08:33.027Z,17.00
2018-03-15T07:11:00.600Z,17.10
2018-03-15T07:13:28.204Z,17.10
2018-03-15T07:15:55.838Z,17.10
2018-03-15T07:18:23.448Z,17.20
2018-03-15T07:20:51.330Z,17.20
2018-03-15T07:23:18.916Z,17.30
2018-03-15T07:25:46.568Z,17.30
2018-03-15T07:28:14.179Z,17.40
2018-03-15T07:30:42.601Z,17.50
2018-03-15T07:33:10.270Z,17.50
2018-03-15T07:35:37.987Z,17.60
2018-03-15T07:38:06.363Z,17.60
2018-03-15T07:40:34.754Z,17.70
2018-03-15T07:43:02.361Z,17.60
2018-03-15T07:45:30.091Z,17.60
2018-03-15T07:47:57.691Z,17.70
2018-03-15T07:50:25.360Z,17.70
2018-03-15T07:52:52.926Z,17.70
2018-03-15T07:55:21.288Z,17.70
2018-03-15T07:57:48.864Z,17.70
2018-03-15T08:00:16.609Z,17.70
2018-03-15T08:02:44.272Z,17.80
2018-03-15T08:05:11.856Z,17.70
2018-03-15T08:07:39.707Z,17.70
2018-03-15T08:10:08.130Z,17.80
2018-03-15T08:12:35.760Z,17.70
2018-03-15T08:15:04.923Z,17.80
2018-03-15T08:17:32.491Z,17.70
2018-03-15T08:20:00.992Z,17.80
2018-03-15T08:22:29.406Z,17.80
2018-03-15T08:24:57.067Z,17.70
2018-03-15T08:27:24.706Z,17.80
2018-03-15T08:29:52.429Z,17.80
2018-03-15T08:32:20.006Z,17.80
2018-03-15T08:34:47.703Z,17.70
2018-03-15T08:37:15.401Z,17.80
2018-03-15T08:39:43.083Z,17.80
2018-03-15T08:42:11.509Z,17.70
2018-03-15T08:44:39.185Z,17.80
2018-03-15T08:47:06.822Z,17.70
2018-03-15T08:49:35.110Z,17.70
2018-03-15T08:52:02.766Z,17.70
2018-03-15T08:54:30.430Z,17.70
2018-03-15T08:56:58.067Z,17.70
2018-03-15T08:59:25.770Z,17.70
2018-03-15T09:01:53.418Z,17.70
2018-03-15T09:04:21.159Z,17.70
2018-03-15T09:06:48.834Z,17.70
2018-03-15T09:09:16.547Z,17.70
2018-03-15T09:11:44.251Z,17.70
2018-03-15T09:14:11.895Z,17.70
2018-03-15T09:16:39.655Z,17.70
2018-03-15T09:19:07.979Z,17.70
2018-03-15T09:21:36.426Z,17.70
2018-03-15T09:24:04.932Z,17.70
2018-03-15T09:26:33.102Z,17.70
2018-03-15T09:29:00.835Z,17.80
2018-03-15T09:31:28.495Z,17.70
2018-03-15T09:35:30.419Z,17.70
2018-03-15T09:37:58.047Z,17.80
2018-03-15T09:40:25.718Z,17.80
2018-03-15T09:42:54.086Z,17.80
2018-03-15T09:45:23.967Z,17.80
2018-03-15T09:47:52.441Z,17.80
2018-03-15T09:50:20.240Z,17.70
2018-03-15T09:52:47.963Z,17.80
2018-03-15T09:55:15.673Z,17.80
2018-03-15T09:57:45.748Z,17.80
2018-03-15T10:00:14.176Z,17.80
2018-03-15T10:02:41.805Z,17.80
2018-03-15T10:05:10.049Z,17.80
2018-03-15T10:07:37.744Z,17.80
2018-03-15T10:10:05.359Z,17.80
2018-03-15T10:12:33.012Z,17.80
2018-03-15T10:15:00.627Z,17.80
2018-03-15T10:17:28.209Z,17.80
2018-03-15T10:19:55.936Z,17.80
2018-03-15T10:22:23.547Z,17.80
2018-03-15T10:24:51.259Z,17.80
2018-03-15T10:27:18.890Z,17.80
2018-03-15T10:29:46.522Z,17.80
2018-03-15T10:32:14.126Z,17.80
2018-03-15T10:34:42.459Z,17.80
2018-03-15T10:37:11.068Z,17.80
2018-03-15T10:39:38.673Z,17.80
2018-03-15T10:42:06.423Z,17.80
2018-03-15T10:44:34.942Z,17.80
2018-03-15T10:47:02.552Z,17.90
2018-03-15T10:49:30.278Z,17.90
2018-03-15T10:51:57.834Z,17.80
2018-03-15T10:54:25.484Z,17.90
2018-03-15T10:56:55.223Z,17.90
2018-03-15T10:59:22.845Z,17.80
2018-03-15T11:02:08.156Z,17.90
2018-03-15T11:04:41.546Z,17.90
2018-03-15T11:07:15.458Z,17.90
2018-03-15T11:09:43.410Z,17.90
2018-03-15T11:12:12.518Z,17.90
2018-03-15T11:14:41.000Z,18.00
2018-03-15T11:17:08.861Z,18.00
2018-03-15T11:19:37.676Z,18.00
2018-03-15T11:22:05.923Z,18.00
2018-03-15T11:24:34.507Z,18.10
2018-03-15T11:27:03.810Z,18.10
2018-03-15T11:29:32.692Z,18.10
2018-03-15T11:32:00.966Z,18.10
2018-03-15T11:34:30.371Z,18.20
2018-03-15T11:36:59.158Z,18.10
2018-03-15T11:39:27.226Z,18.20
2018-03-15T11:41:56.514Z,18.20
2018-03-15T11:44:25.119Z,18.20
2018-03-15T11:46:52.895Z,18.30
2018-03-15T11:49:20.647Z,18.30
2018-03-15T11:51:49.139Z,18.30
2018-03-15T11:54:16.736Z,18.30
2018-03-15T11:56:44.335Z,18.40
2018-03-15T11:59:12.191Z,18.40
2018-03-15T12:01:39.855Z,18.40
2018-03-15T12:04:07.384Z,18.40
2018-03-15T12:06:35.007Z,18.40
2018-03-15T12:09:03.354Z,18.50
2018-03-15T12:11:31.059Z,18.50
2018-03-15T12:13:58.634Z,18.50
2018-03-15T12:16:26.213Z,18.50
2018-03-15T12:18:53.776Z,18.60
2018-03-15T12:21:21.343Z,18.60
2018-03-15T12:23:48.913Z,18.60
2018-03-15T12:26:16.584Z,18.60
2018-03-15T12:28:44.829Z,18.60
2018-03-15T12:31:12.915Z,18.60
2018-03-15T12:33:41.203Z,18.60
2018-03-15T12:36:08.848Z,18.70
2018-03-15T12:38:36.527Z,18.60
2018-03-15T12:41:04.140Z,18.60
2018-03-15T12:43:31.719Z,18.60
2018-03-15T12:45:59.331Z,18.60
2018-03-15T12:48:27.735Z,18.70
2018-03-15T12:50:55.493Z,18.60
2018-03-15T12:53:23.607Z,18.70
2018-03-15T12:55:51.417Z,18.70
2018-03-15T12:58:19.154Z,18.70
2018-03-15T13:00:47.010Z,18.70
2018-03-15T13:03:14.855Z,18.70
2018-03-15T13:05:43.121Z,18.70
2018-03-15T13:08:10.950Z,18.70
2018-03-15T13:10:40.278Z,18.70
2018-03-15T13:13:09.139Z,18.70
2018-03-15T13:15:38.077Z,18.70
2018-03-15T13:18:05.632Z,18.60
2018-03-15T13:20:33.196Z,18.70
2018-03-15T13:23:00.797Z,18.70
2018-03-15T13:25:28.400Z,18.70
2018-03-15T13:27:55.951Z,18.60
2018-03-15T13:30:23.515Z,18.60
2018-03-15T13:32:51.141Z,18.60
2018-03-15T13:35:18.743Z,18.60
2018-03-15T13:37:46.485Z,18.60
2018-03-15T13:40:14.046Z,18.60
2018-03-15T13:42:41.623Z,18.60
2018-03-15T13:45:09.190Z,18.60
2018-03-15T13:47:36.769Z,18.60
2018-03-15T13:50:04.390Z,18.60
2018-03-15T13:52:31.966Z,18.60
2018-03-15T13:54:59.594Z,18.60
2018-03-15T13:57:28.586Z,18.60
2018-03-15T13:59:56.260Z,18.60
2018-03-15T14:02:23.834Z,18.60
2018-03-15T14:04:51.805Z,18.70
2018-03-15T14:07:19.433Z,18.70
2018-03-15T14:09:47.011Z,18.70
2018-03-15T14:12:14.602Z,18.70
2018-03-15T14:14:43.538Z,18.70
2018-03-15T14:17:11.502Z,18.70
2018-03-15T14:19:40.350Z,18.80
2018-03-15T14:22:08.767Z,18.80
2018-03-15T14:24:36.347Z,18.70
2018-03-15T14:27:03.947Z,18.80
2018-03-15T14:29:32.109Z,18.80
2018-03-15T14:32:00.516Z,18.80
2018-03-15T14:34:28.135Z,18.80
2018-03-15T14:36:55.708Z,18.80
2018-03-15T14:39:24.178Z,18.70
2018-03-15T14:41:53.365Z,18.70
2018-03-15T14:44:21.735Z,18.70
2018-03-15T14:46:49.435Z,18.70
2018-03-15T14:49:17.107Z,18.70
2018-03-15T14:51:44.756Z,18.70
2018-03-15T14:54:12.551Z,18.70
2018-03-15T14:56:40.311Z,18.70
2018-03-15T14:59:07.907Z,18.70
2018-03-15T15:01:35.540Z,18.60
2018-03-15T15:04:03.144Z,18.60
2018-03-15T15:06:31.483Z,18.60
2018-03-15T15:08:59.063Z,18.60
2018-03-15T15:11:26.703Z,18.60
2018-03-15T15:13:55.088Z,18.60
2018-03-15T15:16:22.772Z,18.60
2018-03-15T15:18:50.472Z,18.50
2018-03-15T15:21:18.163Z,18.60
2018-03-15T15:23:45.800Z,18.50
2018-03-15T15:26:13.404Z,18.60
2018-03-15T15:28:40.973Z,18.50
2018-03-15T15:31:09.326Z,18.50
2018-03-15T15:33:36.901Z,18.50
2018-03-15T15:36:05.535Z,18.50
2018-03-15T15:38:33.165Z,18.50
2018-03-15T15:41:01.668Z,18.50
2018-03-15T15:43:29.277Z,18.50
2018-03-15T15:45:58.040Z,18.50
2018-03-15T15:48:25.648Z,18.50
2018-03-15T15:50:53.314Z,18.50
2018-03-15T15:53:21.637Z,18.50
2018-03-15T15:55:49.221Z,18.50
2018-03-15T15:58:17.550Z,18.50
2018-03-15T16:00:45.231Z,18.50
2018-03-15T16:03:12.829Z,18.50
2018-03-15T16:05:41.260Z,18.50
2018-03-15T16:08:08.878Z,18.50
2018-03-15T16:10:36.671Z,18.50
2018-03-15T16:13:04.247Z,18.50
2018-03-15T16:15:31.940Z,18.50
2018-03-15T16:18:00.471Z,18.50
2018-03-15T16:20:28.128Z,18.50
2018-03-15T16:22:55.746Z,18.50
2018-03-15T16:25:24.983Z,18.50
2018-03-15T16:27:52.808Z,18.50
2018-03-15T16:30:20.423Z,18.50
2018-03-15T16:32:47.994Z,18.50
2018-03-15T16:35:15.663Z,18.50
2018-03-15T16:37:43.281Z,18.50
2018-03-15T16:40:11.050Z,18.50
2018-03-15T16:42:40.004Z,18.50
2018-03-15T16:45:09.950Z,18.50
2018-03-15T16:47:37.726Z,18.50
2018-03-15T16:50:05.353Z,18.50
2018-03-15T16:52:32.945Z,18.50
2018-03-15T16:55:00.774Z,18.50
2018-03-15T16:57:28.410Z,18.50
2018-03-15T16:59:57.634Z,18.60
2018-03-15T17:02:25.241Z,18.50
2018-03-15T17:04:52.952Z,18.50
2018-03-15T17:07:21.682Z,18.60
2018-03-15T17:09:50.436Z,18.50
2018-03-15T17:12:19.443Z,18.50
2018-03-15T17:14:48.057Z,18.50
2018-03-15T17:18:52.755Z,18.50
2018-03-15T17:21:21.642Z,18.50
2018-03-15T17:23:49.466Z,18.50
2018-03-15T17:26:17.830Z,18.60
2018-03-15T17:28:46.989Z,18.50
2018-03-15T17:31:14.612Z,18.50
2018-03-15T17:33:42.237Z,18.50
2018-03-15T17:36:09.844Z,18.50
2018-03-15T17:38:37.543Z,18.50
2018-03-15T17:41:05.148Z,18.50
2018-03-15T17:43:32.738Z,18.50
2018-03-15T17:46:00.320Z,18.60
2018-03-15T17:48:27.896Z,18.60
2018-03-15T17:50:56.021Z,18.60
2018-03-15T17:53:24.606Z,18.60
2018-03-15T17:55:53.389Z,18.60
2018-03-15T17:58:22.592Z,18.60
2018-03-15T18:00:50.255Z,18.60
2018-03-15T18:03:17.810Z,18.70
2018-03-15T18:05:45.583Z,18.70
2018-03-15T18:08:13.201Z,18.80
2018-03-15T18:10:40.806Z,18.80
2018-03-15T18:13:08.364Z,18.80
2018-03-15T18:15:35.941Z,18.80
2018-03-15T18:18:03.527Z,18.90
2018-03-15T18:20:31.877Z,18.90
2018-03-15T18:22:59.448Z,18.90
2018-03-15T18:25:27.831Z,18.90
2018-03-15T18:27:56.266Z,18.90
2018-03-15T18:30:23.835Z,18.90
2018-03-15T18:32:52.756Z,18.90
2018-03-15T18:35:20.370Z,18.90
2018-03-15T18:37:47.951Z,18.80
2018-03-15T18:40:15.565Z,18.80
2018-03-15T18:42:43.180Z,18.80
2018-03-15T18:45:10.742Z,18.80
2018-03-15T18:47:39.404Z,18.80
2018-03-15T18:50:06.962Z,18.80
2018-03-15T18:52:41.787Z,18.80
2018-03-15T18:55:09.536Z,18.80
2018-03-15T18:57:38.257Z,18.80
2018-03-15T19:00:06.994Z,18.80
2018-03-15T19:02:38.058Z,18.80
2018-03-15T19:05:06.541Z,18.80
2018-03-15T19:07:34.196Z,18.70
2018-03-15T19:10:01.797Z,18.80
2018-03-15T19:12:29.466Z,18.80
2018-03-15T19:14:57.071Z,18.80
2018-03-15T19:17:25.602Z,18.80
2018-03-15T19:19:53.998Z,18.80
2018-03-15T19:22:21.619Z,18.80
2018-03-15T19:24:49.996Z,18.80
2018-03-15T19:27:19.203Z,18.80
2018-03-15T19:29:47.651Z,18.70
2018-03-15T19:32:17.789Z,18.70
2018-03-15T19:34:45.383Z,18.70
2018-03-15T19:37:13.496Z,18.70
2018-03-15T19:39:41.870Z,18.70
2018-03-15T19:42:09.461Z,18.70
2018-03-15T19:44:38.361Z,18.70
2018-03-15T19:47:06.715Z,18.60
2018-03-15T19:49:34.328Z,18.60
2018-03-15T19:52:03.322Z,18.60
2018-03-15T19:54:32.023Z,18.60
2018-03-15T19:57:00.050Z,18.60
2018-03-15T19:59:27.681Z,18.60
2018-03-15T20:01:56.031Z,18.60
2018-03-15T20:04:23.681Z,18.60
2018-03-15T20:06:51.310Z,18.60
2018-03-15T20:09:18.880Z,18.60
2018-03-15T20:11:46.430Z,18.60
2018-03-15T20:14:14.026Z,18.60
2018-03-15T20:16:41.671Z,18.60
2018-03-15T20:19:14.934Z,18.60
2018-03-15T20:21:42.499Z,18.60
2018-03-15T20:24:16.216Z,18.60
2018-03-15T20:26:43.871Z,18.60
2018-03-15T20:29:11.426Z,18.50
2018-03-15T20:31:41.944Z,18.60
2018-03-15T20:34:11.708Z,18.60
2018-03-15T20:36:40.107Z,18.60
2018-03-15T20:39:14.426Z,18.60
2018-03-15T20:41:42.771Z,18.60
2018-03-15T20:44:10.326Z,18.50
2018-03-15T20:46:43.650Z,18.50
2018-03-15T20:49:13.734Z,18.50
2018-03-15T20:51:41.514Z,18.60
2018-03-15T20:54:09.307Z,18.50
2018-03-15T20:56:36.882Z,18.50
2018-03-15T20:59:04.451Z,18.60
2018-03-15T21:01:32.281Z,18.50
2018-03-15T21:04:00.073Z,18.50
2018-03-15T21:06:27.860Z,18.60
2018-03-15T21:08:55.728Z,18.60
2018-03-15T21:11:24.878Z,18.50
2018-03-15T21:13:52.550Z,18.50
2018-03-15T21:16:20.142Z,18.50
2018-03-15T21:18:47.793Z,18.50
2018-03-15T21:21:15.375Z,18.50
2018-03-15T21:23:43.815Z,18.50
2018-03-15T21:26:13.106Z,18.50
2018-03-15T21:28:40.768Z,18.50
2018-03-15T21:31:09.558Z,18.40
2018-03-15T21:33:38.448Z,18.40
2018-03-15T21:36:08.182Z,18.40
2018-03-15T21:38:36.600Z,18.40
2018-03-15T21:41:04.298Z,18.40
2018-03-15T21:43:33.423Z,18.40
2018-03-15T21:46:02.008Z,18.40
2018-03-15T21:48:31.169Z,18.40
2018-03-15T21:51:00.827Z,18.40
2018-03-15T21:53:30.224Z,18.30
2018-03-15T21:55:58.797Z,18.30
2018-03-15T21:58:27.336Z,18.30
2018-03-15T22:00:56.533Z,18.30
2018-03-15T22:03:25.053Z,18.30
2018-03-15T22:05:53.337Z,18.30
2018-03-15T22:08:22.251Z,18.30
2018-03-15T22:10:50.327Z,18.30
2018-03-15T22:13:19.645Z,18.20
2018-03-15T22:15:48.893Z,18.20
2018-03-15T22:18:17.319Z,18.30
2018-03-15T22:20:46.904Z,18.20
2018-03-15T22:23:15.437Z,18.20
2018-03-15T22:25:44.202Z,18.20
2018-03-15T22:28:13.797Z,18.20
2018-03-15T22:30:43.916Z,18.20
2018-03-15T22:33:13.288Z,18.20
2018-03-15T22:35:42.358Z,18.20
2018-03-15T22:38:11.091Z,18.20
2018-03-15T22:40:40.711Z,18.10
2018-03-15T22:43:08.674Z,18.10
2018-03-15T22:45:37.108Z,18.20
2018-03-15T22:48:05.499Z,18.20
2018-03-15T22:50:34.313Z,18.10
2018-03-15T22:53:03.578Z,18.10
2018-03-15T22:55:31.840Z,18.10
2018-03-15T22:58:00.369Z,18.10
2018-03-15T23:00:29.976Z,18.10
2018-03-15T23:02:59.258Z,18.10
2018-03-15T23:05:28.921Z,18.10
2018-03-15T23:07:57.257Z,18.10
2018-03-15T23:10:26.389Z,18.10
2018-03-15T23:12:55.455Z,18.00
2018-03-15T23:15:24.452Z,18.10
2018-03-15T23:17:53.230Z,18.10
2018-03-15T23:20:22.614Z,18.10
2018-03-15T23:22:51.610Z,18.10
2018-03-15T23:25:20.292Z,18.00
2018-03-15T23:27:50.118Z,18.00
2018-03-15T23:30:18.327Z,18.00
2018-03-15T23:32:48.086Z,18.10
2018-03-15T23:35:17.353Z,18.00
2018-03-15T23:37:46.786Z,18.00
2018-03-15T23:40:15.216Z,18.00
2018-03-15T23:42:45.080Z,18.00
2018-03-15T23:45:13.259Z,18.00
2018-03-15T23:47:42.036Z,18.00
2018-03-15T23:50:11.819Z,18.00
2018-03-15T23:52:40.425Z,18.00
2018-03-15T23:55:08.850Z,18.00
2018-03-15T23:57:36.435Z,18.00
